createdAt,value
2023-03-16T00:03:47.009Z,4.30
2023-03-16T00:08:48.689Z,4.33
2023-03-16T00:13:51.365Z,4.40
2023-03-16T00:18:53.065Z,4.40
2023-03-16T00:23:54.703Z,3.77
2023-03-16T00:28:56.434Z,4.43
2023-03-16T00:33:58.436Z,3.80
2023-03-16T00:39:00.112Z,3.50
2023-03-16T00:44:01.700Z,3.50
2023-03-16T00:49:03.363Z,3.30
2023-03-16T00:54:05.590Z,3.40
2023-03-16T00:59:08.936Z,3.20
2023-03-16T01:04:10.886Z,2.87
2023-03-16T01:09:14.903Z,2.87
2023-03-16T01:14:16.477Z,2.60
2023-03-16T01:19:18.371Z,2.93
2023-03-16T01:24:19.949Z,2.70
2023-03-16T01:29:22.100Z,2.63
2023-03-16T01:34:25.701Z,3.17
2023-03-16T01:39:27.985Z,2.93
2023-03-16T01:44:35.121Z,2.83
2023-03-16T01:49:40.650Z,2.87
2023-03-16T01:54:47.711Z,2.63
2023-03-16T02:00:14.732Z,3.03
2023-03-16T02:05:23.027Z,2.90
2023-03-16T02:10:27.681Z,2.80
2023-03-16T02:15:30.448Z,2.57
2023-03-16T02:20:50.539Z,2.53
2023-03-16T02:26:13.606Z,2.40
2023-03-16T02:31:18.848Z,2.80
2023-03-16T02:36:21.536Z,2.70
2023-03-16T02:41:24.218Z,2.70
2023-03-16T02:46:35.899Z,2.50
2023-03-16T02:51:39.477Z,3.10
2023-03-16T02:56:41.984Z,2.70
2023-03-16T03:01:45.687Z,2.70
2023-03-16T03:06:47.356Z,2.63
2023-03-16T03:11:50.684Z,3.40
2023-03-16T03:16:53.000Z,3.07
2023-03-16T03:21:56.724Z,3.30
2023-03-16T03:27:05.676Z,3.00
2023-03-16T03:32:09.218Z,3.00
2023-03-16T03:37:10.970Z,3.50
2023-03-16T03:42:18.310Z,2.90
2023-03-16T03:47:20.504Z,3.20
2023-03-16T03:52:22.481Z,3.17
2023-03-16T03:57:24.429Z,3.10
2023-03-16T04:02:26.357Z,2.83
2023-03-16T04:07:29.778Z,3.20
2023-03-16T04:12:36.519Z,3.13
2023-03-16T04:17:38.481Z,3.50
2023-03-16T04:22:43.708Z,3.73
2023-03-16T04:27:46.695Z,3.67
2023-03-16T04:32:50.106Z,3.67
2023-03-16T04:37:54.532Z,3.30
2023-03-16T04:43:02.876Z,3.33
2023-03-16T04:48:06.607Z,3.40
2023-03-16T04:53:08.303Z,3.60
2023-03-16T04:58:10.157Z,3.77
2023-03-16T05:03:14.783Z,3.60
2023-03-16T05:08:17.079Z,4.23
2023-03-16T05:13:21.386Z,3.37
2023-03-16T05:18:25.454Z,3.50
2023-03-16T05:23:27.313Z,4.13
2023-03-16T05:28:34.334Z,3.40
2023-03-16T05:33:39.117Z,4.13
2023-03-16T05:38:45.570Z,3.53
2023-03-16T05:43:54.367Z,3.47
2023-03-16T05:48:59.083Z,3.80
2023-03-16T05:54:01.210Z,3.57
2023-03-16T05:59:09.311Z,3.67
2023-03-16T06:04:11.743Z,3.60
2023-03-16T06:09:15.853Z,3.80
2023-03-16T06:14:17.738Z,3.47
2023-03-16T06:19:20.311Z,3.87
2023-03-16T06:24:27.705Z,3.67
2023-03-16T06:29:29.801Z,4.30
2023-03-16T06:34:31.902Z,4.07
2023-03-16T06:39:33.727Z,3.63
2023-03-16T06:44:35.532Z,3.47
2023-03-16T06:49:42.291Z,4.20
2023-03-16T06:54:51.092Z,3.77
2023-03-16T06:59:54.535Z,3.93
2023-03-16T07:04:56.161Z,3.57
2023-03-16T07:09:58.660Z,4.57
2023-03-16T07:15:01.284Z,4.37
2023-03-16T07:20:05.940Z,4.60
2023-03-16T07:25:08.588Z,4.10
2023-03-16T07:30:14.409Z,4.27
2023-03-16T07:35:18.458Z,4.80
2023-03-16T07:40:20.776Z,4.57
2023-03-16T07:45:23.010Z,4.70
2023-03-16T07:50:25.371Z,4.13
2023-03-16T07:55:27.962Z,3.67
2023-03-16T08:00:31.429Z,3.70
2023-03-16T08:05:33.762Z,3.67
2023-03-16T08:10:39.436Z,3.20
2023-03-16T08:15:48.517Z,3.53
2023-03-16T08:20:58.556Z,3.10
2023-03-16T08:26:03.776Z,2.90
2023-03-16T08:31:08.016Z,3.00
2023-03-16T08:36:30.223Z,2.90
2023-03-16T08:41:34.832Z,3.30
2023-03-16T08:46:42.432Z,3.80
2023-03-16T08:51:45.129Z,3.60
2023-03-16T08:56:46.833Z,3.90
2023-03-16T09:01:48.556Z,3.30
2023-03-16T09:07:07.929Z,3.17
2023-03-16T09:12:12.700Z,3.53
2023-03-16T09:17:14.784Z,2.90
2023-03-16T09:22:16.873Z,2.87
2023-03-16T09:27:20.793Z,3.47
2023-03-16T09:32:22.663Z,3.10
2023-03-16T09:37:24.686Z,2.63
2023-03-16T09:42:59.900Z,2.43
2023-03-16T09:48:04.362Z,2.40
2023-03-16T09:53:33.200Z,2.10
2023-03-16T09:58:34.920Z,2.27
2023-03-16T10:03:59.203Z,2.37
2023-03-16T10:09:28.942Z,2.50
2023-03-16T10:14:36.699Z,2.33
2023-03-16T10:19:44.078Z,3.00
2023-03-16T10:25:28.586Z,2.70
2023-03-16T10:30:33.443Z,3.30
2023-03-16T10:36:05.581Z,2.00
2023-03-16T10:41:22.525Z,2.50
2023-03-16T10:46:28.533Z,2.00
2023-03-16T10:51:34.952Z,2.70
2023-03-16T10:56:37.140Z,2.17
2023-03-16T11:01:38.803Z,2.63
2023-03-16T11:06:48.372Z,2.37
2023-03-16T11:11:50.523Z,2.27
2023-03-16T11:17:05.668Z,2.20
2023-03-16T11:22:27.244Z,1.93
2023-03-16T11:28:06.458Z,1.60
2023-03-16T11:33:14.036Z,2.10
2023-03-16T11:38:19.304Z,1.97
2023-03-16T11:44:01.486Z,1.97
2023-03-16T11:49:16.382Z,1.83
2023-03-16T11:54:42.979Z,1.97
2023-03-16T12:00:15.491Z,2.10
2023-03-16T12:05:26.368Z,2.30
2023-03-16T12:10:49.745Z,1.97
2023-03-16T12:15:56.922Z,1.90
2023-03-16T12:20:58.565Z,1.60
2023-03-16T12:26:00.856Z,2.00
2023-03-16T12:31:04.343Z,1.80
2023-03-16T12:36:30.748Z,2.60
2023-03-16T12:41:59.307Z,1.90
2023-03-16T12:47:17.970Z,1.80
2023-03-16T12:52:20.443Z,2.00
2023-03-16T12:57:27.017Z,2.13
2023-03-16T13:02:32.903Z,1.60
2023-03-16T13:07:38.876Z,1.77
2023-03-16T13:12:41.836Z,1.57
2023-03-16T13:17:43.853Z,1.50
2023-03-16T13:22:53.121Z,1.60
2023-03-16T13:27:56.155Z,1.87
2023-03-16T13:33:10.070Z,1.90
2023-03-16T13:38:19.527Z,2.00
2023-03-16T13:43:28.881Z,1.97
2023-03-16T13:48:37.183Z,1.80
2023-03-16T13:53:40.894Z,2.13
2023-03-16T13:58:45.669Z,1.80
2023-03-16T14:03:47.830Z,2.00
2023-03-16T14:08:53.394Z,2.20
2023-03-16T14:13:57.185Z,1.90
2023-03-16T14:19:03.312Z,1.90
2023-03-16T14:24:07.071Z,1.80
2023-03-16T14:29:20.844Z,1.77
2023-03-16T14:34:29.961Z,2.20
2023-03-16T14:39:31.742Z,1.83
2023-03-16T14:44:35.656Z,2.07
2023-03-16T14:49:38.630Z,2.07
2023-03-16T14:54:40.661Z,2.07
2023-03-16T14:59:43.333Z,2.40
2023-03-16T15:04:45.703Z,2.10
2023-03-16T15:09:47.300Z,2.33
2023-03-16T15:15:07.694Z,2.23
2023-03-16T15:20:32.906Z,2.10
2023-03-16T15:25:37.220Z,2.30
2023-03-16T15:30:39.111Z,2.03
2023-03-16T15:35:41.653Z,2.30
2023-03-16T15:40:44.384Z,2.50
2023-03-16T15:45:47.263Z,2.30
2023-03-16T15:50:53.451Z,2.27
2023-03-16T15:55:59.332Z,2.53
2023-03-16T16:01:03.029Z,2.63
2023-03-16T16:06:12.124Z,2.30
2023-03-16T16:11:24.782Z,2.37
2023-03-16T16:16:29.183Z,2.10
2023-03-16T16:21:32.551Z,2.20
2023-03-16T16:26:51.600Z,2.47
2023-03-16T16:31:55.772Z,3.00
2023-03-16T16:36:57.972Z,3.10
2023-03-16T16:41:59.781Z,3.03
2023-03-16T16:47:02.540Z,3.17
2023-03-16T16:52:04.864Z,2.50
2023-03-16T16:57:16.017Z,2.43
2023-03-16T17:02:25.840Z,2.00
2023-03-16T17:07:27.548Z,2.43
2023-03-16T17:12:29.587Z,2.43
2023-03-16T17:17:32.524Z,2.47
2023-03-16T17:22:34.683Z,2.20
2023-03-16T17:27:36.507Z,3.00
2023-03-16T17:32:38.119Z,2.20
2023-03-16T17:37:39.783Z,2.37
2023-03-16T17:42:41.592Z,2.00
2023-03-16T17:47:43.256Z,2.33
2023-03-16T17:52:44.991Z,2.33
2023-03-16T17:57:51.936Z,2.20
2023-03-16T18:03:04.758Z,2.30
2023-03-16T18:08:26.065Z,2.83
2023-03-16T18:13:31.665Z,2.97
2023-03-16T18:18:37.197Z,2.67
2023-03-16T18:23:39.711Z,2.53
2023-03-16T18:28:42.039Z,2.50
2023-03-16T18:33:45.629Z,2.23
2023-03-16T18:38:50.628Z,2.30
2023-03-16T18:43:54.726Z,2.37
2023-03-16T18:49:02.200Z,2.70
2023-03-16T18:54:04.822Z,3.10
2023-03-16T18:59:06.700Z,2.60
2023-03-16T19:04:26.959Z,3.77
2023-03-16T19:09:31.078Z,3.13
2023-03-16T19:14:34.185Z,3.10
2023-03-16T19:19:35.817Z,2.50
2023-03-16T19:24:47.111Z,2.67
2023-03-16T19:29:52.129Z,2.73
2023-03-16T19:34:53.965Z,3.00
2023-03-16T19:39:55.666Z,2.30
2023-03-16T19:44:57.504Z,3.57
2023-03-16T19:49:59.642Z,3.00
2023-03-16T19:55:01.359Z,3.03
2023-03-16T20:00:06.973Z,3.00
2023-03-16T20:05:17.042Z,2.87
2023-03-16T20:10:23.963Z,3.10
2023-03-16T20:15:32.466Z,3.33
2023-03-16T20:20:37.611Z,3.73
2023-03-16T20:25:39.311Z,3.13
2023-03-16T20:30:41.545Z,3.60
2023-03-16T20:35:43.475Z,2.97
2023-03-16T20:40:47.541Z,2.77
2023-03-16T20:45:50.467Z,2.90
2023-03-16T20:50:53.533Z,2.77
2023-03-16T20:55:56.524Z,3.72
2023-03-16T21:00:58.378Z,2.70
2023-03-16T21:06:00.240Z,2.70
2023-03-16T21:11:04.319Z,2.50
2023-03-16T21:16:06.186Z,2.63
2023-03-16T21:21:14.001Z,2.50
2023-03-16T21:26:17.880Z,2.40
2023-03-16T21:31:20.555Z,2.57
2023-03-16T21:36:28.727Z,2.10
2023-03-16T21:41:30.352Z,2.50
2023-03-16T21:46:32.776Z,2.10
2023-03-16T21:51:34.952Z,2.73
2023-03-16T21:56:37.561Z,2.30
2023-03-16T22:01:54.424Z,2.17
2023-03-16T22:07:02.367Z,2.47
2023-03-16T22:12:07.517Z,2.07
2023-03-16T22:17:19.679Z,2.10
2023-03-16T22:22:21.739Z,2.20
2023-03-16T22:27:26.148Z,2.20
2023-03-16T22:32:28.434Z,2.27
2023-03-16T22:37:30.392Z,2.20
2023-03-16T22:42:37.209Z,2.10
2023-03-16T22:47:39.406Z,2.20
2023-03-16T22:52:41.666Z,1.97
2023-03-16T22:57:43.584Z,2.13
2023-03-16T23:02:45.268Z,2.20
2023-03-16T23:07:47.046Z,2.43
2023-03-16T23:12:49.749Z,2.33
2023-03-16T23:17:52.048Z,1.70
2023-03-16T23:22:54.642Z,2.10
2023-03-16T23:27:57.648Z,2.07
2023-03-16T23:32:59.393Z,2.20
2023-03-16T23:38:01.334Z,2.10
2023-03-16T23:43:03.488Z,1.90
2023-03-16T23:48:06.571Z,2.10
2023-03-16T23:53:13.707Z,2.13
2023-03-16T23:58:16.608Z,2.20
